createdAt,value
2018-04-17T00:02:04.827Z,3.33
2018-04-17T00:04:33.511Z,3.50
2018-04-17T00:07:00.966Z,5.43
2018-04-17T00:09:28.412Z,5.13
2018-04-17T00:11:56.628Z,5.63
2018-04-17T00:14:25.005Z,4.00
2018-04-17T00:16:52.476Z,3.80
2018-04-17T00:19:19.925Z,4.73
2018-04-17T00:21:47.368Z,3.50
2018-04-17T00:24:14.814Z,7.70
2018-04-17T00:26:42.255Z,4.05
2018-04-17T00:29:09.721Z,3.37
2018-04-17T00:31:37.167Z,4.27
2018-04-17T00:34:05.360Z,4.20
2018-04-17T00:36:32.830Z,3.40
2018-04-17T00:39:00.276Z,5.27
2018-04-17T00:41:27.731Z,2.80
2018-04-17T00:43:55.936Z,3.23
2018-04-17T00:46:23.376Z,4.93
2018-04-17T00:48:50.831Z,4.15
2018-04-17T00:51:18.260Z,3.77
2018-04-17T00:53:53.089Z,4.33
2018-04-17T00:56:21.279Z,6.60
2018-04-17T00:58:48.724Z,4.80
2018-04-17T01:01:16.161Z,6.03
2018-04-17T01:03:43.608Z,4.20
2018-04-17T01:06:11.030Z,4.73
2018-04-17T01:08:38.479Z,4.43
2018-04-17T01:11:05.913Z,5.93
2018-04-17T01:13:33.357Z,6.60
2018-04-17T01:16:01.594Z,4.47
2018-04-17T01:18:29.030Z,4.90
2018-04-17T01:20:57.803Z,4.97
2018-04-17T01:23:25.240Z,5.20
2018-04-17T01:25:53.433Z,5.73
2018-04-17T01:28:20.869Z,6.03
2018-04-17T01:30:49.074Z,4.97
2018-04-17T01:33:16.527Z,5.93
2018-04-17T01:35:43.952Z,5.27
2018-04-17T01:38:12.175Z,4.93
2018-04-17T01:40:39.622Z,9.87
2018-04-17T01:43:07.994Z,3.70
2018-04-17T01:45:35.443Z,3.90
2018-04-17T01:48:02.872Z,4.60
2018-04-17T01:50:31.082Z,4.50
2018-04-17T01:52:58.535Z,3.60
2018-04-17T01:55:26.003Z,4.35
2018-04-17T01:57:54.181Z,6.27
2018-04-17T02:00:21.620Z,6.80
2018-04-17T02:02:49.052Z,5.17
2018-04-17T02:05:18.676Z,3.73
2018-04-17T02:07:46.854Z,4.63
2018-04-17T02:10:14.301Z,3.90
2018-04-17T02:12:42.495Z,4.93
2018-04-17T02:15:09.940Z,4.00
2018-04-17T02:17:37.364Z,5.35
2018-04-17T02:20:04.799Z,3.53
2018-04-17T02:22:32.235Z,4.10
2018-04-17T02:24:59.672Z,4.07
2018-04-17T02:27:27.108Z,4.27
2018-04-17T02:29:55.332Z,5.90
2018-04-17T02:32:22.774Z,4.17
2018-04-17T02:34:50.219Z,3.90
2018-04-17T02:37:17.644Z,4.30
2018-04-17T02:39:45.090Z,5.35
2018-04-17T02:42:12.626Z,5.10
2018-04-17T02:44:40.106Z,7.78
2018-04-17T02:47:07.530Z,5.40
2018-04-17T02:49:34.996Z,4.53
2018-04-17T02:52:02.535Z,3.83
2018-04-17T02:54:29.964Z,5.03
2018-04-17T02:56:58.161Z,3.87
2018-04-17T02:59:25.622Z,4.90
2018-04-17T03:01:53.046Z,4.12
2018-04-17T03:04:21.252Z,5.70
2018-04-17T03:06:48.690Z,9.83
2018-04-17T03:09:16.141Z,3.90
2018-04-17T03:11:44.326Z,3.97
2018-04-17T03:14:11.751Z,4.50
2018-04-17T03:16:40.203Z,3.80
2018-04-17T03:19:07.648Z,4.30
2018-04-17T03:21:35.070Z,4.00
2018-04-17T03:24:02.507Z,4.10
2018-04-17T03:26:29.944Z,4.40
2018-04-17T03:28:57.396Z,6.00
2018-04-17T03:31:24.828Z,6.37
2018-04-17T03:33:52.252Z,5.27
2018-04-17T03:36:20.462Z,6.87
2018-04-17T03:38:48.407Z,4.60
2018-04-17T03:41:15.863Z,8.00
2018-04-17T03:43:43.307Z,4.63
2018-04-17T03:46:11.512Z,4.80
2018-04-17T03:48:38.948Z,6.43
2018-04-17T03:51:06.387Z,8.37
2018-04-17T03:53:34.570Z,4.63
2018-04-17T03:56:02.019Z,4.70
2018-04-17T03:58:30.234Z,5.15
2018-04-17T04:00:57.684Z,5.30
2018-04-17T04:03:25.134Z,4.27
2018-04-17T04:05:52.582Z,6.37
2018-04-17T04:08:20.005Z,6.27
2018-04-17T04:10:47.451Z,5.40
2018-04-17T04:13:14.866Z,6.83
2018-04-17T04:15:42.320Z,6.33
2018-04-17T04:18:21.674Z,6.30
2018-04-17T04:21:01.208Z,9.60
2018-04-17T04:23:40.648Z,4.67
2018-04-17T04:26:19.831Z,8.70
2018-04-17T04:28:47.258Z,4.57
2018-04-17T04:31:14.726Z,4.67
2018-04-17T04:33:42.169Z,7.00
2018-04-17T04:36:09.615Z,6.93
2018-04-17T04:38:37.048Z,4.60
2018-04-17T04:41:04.498Z,6.83
2018-04-17T04:43:31.976Z,5.93
2018-04-17T04:45:59.406Z,8.30
2018-04-17T04:48:27.632Z,4.53
2018-04-17T04:50:55.089Z,4.45
2018-04-17T04:53:22.522Z,7.60
2018-04-17T04:55:49.965Z,6.10
2018-04-17T04:58:17.419Z,5.97
2018-04-17T05:00:44.845Z,6.60
2018-04-17T05:03:13.067Z,4.77
2018-04-17T05:05:40.655Z,6.63
2018-04-17T05:08:08.123Z,4.53
2018-04-17T05:10:35.560Z,6.43
2018-04-17T05:13:02.992Z,8.95
2018-04-17T05:15:30.415Z,6.33
2018-04-17T05:17:58.618Z,4.90
2018-04-17T05:20:26.053Z,10.43
2018-04-17T05:22:54.268Z,7.57
2018-04-17T05:25:21.701Z,5.03
2018-04-17T05:27:49.129Z,4.40
2018-04-17T05:30:17.329Z,7.20
2018-04-17T05:32:44.776Z,9.50
2018-04-17T05:35:13.049Z,10.00
2018-04-17T05:37:41.241Z,6.40
2018-04-17T05:40:08.740Z,9.90
2018-04-17T05:42:36.896Z,6.70
2018-04-17T05:45:04.330Z,5.63
2018-04-17T05:47:31.770Z,5.80
2018-04-17T05:49:59.976Z,6.37
2018-04-17T05:52:27.422Z,11.77
2018-04-17T05:54:54.884Z,7.23
2018-04-17T05:57:22.336Z,6.87
2018-04-17T05:59:49.763Z,5.97
2018-04-17T06:02:17.990Z,9.17
2018-04-17T06:04:45.448Z,7.50
2018-04-17T06:07:12.922Z,8.90
2018-04-17T06:09:40.370Z,7.10
2018-04-17T06:12:07.820Z,6.47
2018-04-17T06:14:35.260Z,5.73
2018-04-17T06:17:02.696Z,5.43
2018-04-17T06:19:30.911Z,5.20
2018-04-17T06:21:58.339Z,6.17
2018-04-17T06:24:25.809Z,4.90
2018-04-17T06:26:53.251Z,10.00
2018-04-17T06:29:21.963Z,4.97
2018-04-17T06:31:49.395Z,6.13
2018-04-17T06:34:16.846Z,8.10
2018-04-17T06:36:44.293Z,5.37
2018-04-17T06:39:12.515Z,6.47
2018-04-17T06:41:40.008Z,10.10
2018-04-17T06:44:07.403Z,6.37
2018-04-17T06:46:34.845Z,10.40
2018-04-17T06:49:03.087Z,10.07
2018-04-17T06:51:31.972Z,12.23
2018-04-17T06:53:59.390Z,11.67
2018-04-17T06:56:26.840Z,15.77
2018-04-17T06:58:54.279Z,6.47
2018-04-17T07:01:22.584Z,7.50
2018-04-17T07:03:50.065Z,10.10
2018-04-17T07:06:17.518Z,9.03
2018-04-17T07:08:44.979Z,7.47
2018-04-17T07:11:12.431Z,6.47
2018-04-17T07:13:39.875Z,12.23
2018-04-17T07:16:07.328Z,10.90
2018-04-17T07:18:34.778Z,19.57
2018-04-17T07:21:02.225Z,15.43
2018-04-17T07:23:29.681Z,20.37
2018-04-17T07:25:57.899Z,7.87
2018-04-17T07:28:25.359Z,13.53
2018-04-17T07:30:52.807Z,14.43
2018-04-17T07:33:20.243Z,16.30
2018-04-17T07:35:47.690Z,16.70
2018-04-17T07:38:15.128Z,11.10
2018-04-17T07:40:43.347Z,7.90
2018-04-17T07:43:10.796Z,8.27
2018-04-17T07:45:38.251Z,19.23
2018-04-17T07:48:22.514Z,14.83
2018-04-17T07:50:49.967Z,19.07
2018-04-17T07:53:17.406Z,19.90
2018-04-17T07:55:44.875Z,20.27
2018-04-17T07:58:12.301Z,23.00
2018-04-17T08:00:40.502Z,13.37
2018-04-17T08:03:07.967Z,26.17
2018-04-17T08:05:35.413Z,28.10
2018-04-17T08:08:02.854Z,12.87
2018-04-17T08:10:30.323Z,10.20
2018-04-17T08:12:57.764Z,13.83
2018-04-17T08:15:25.958Z,19.53
2018-04-17T08:17:53.413Z,28.23
2018-04-17T08:20:20.877Z,21.48
2018-04-17T08:22:48.316Z,24.33
2018-04-17T08:25:15.768Z,19.03
2018-04-17T08:27:43.998Z,20.03
2018-04-17T08:30:11.447Z,16.60
2018-04-17T08:32:38.898Z,12.97
2018-04-17T08:35:06.440Z,14.47
2018-04-17T08:37:33.895Z,28.50
2018-04-17T08:40:01.334Z,11.27
2018-04-17T08:42:28.791Z,16.70
2018-04-17T08:44:56.242Z,12.10
2018-04-17T08:47:24.453Z,10.93
2018-04-17T08:49:51.898Z,10.80
2018-04-17T08:52:19.343Z,9.33
2018-04-17T08:54:46.802Z,9.88
2018-04-17T08:57:14.398Z,15.27
2018-04-17T08:59:41.858Z,13.10
2018-04-17T09:02:09.297Z,12.73
2018-04-17T09:04:36.743Z,12.43
2018-04-17T09:07:04.200Z,12.30
2018-04-17T09:09:31.641Z,9.80
2018-04-17T09:11:59.153Z,11.53
2018-04-17T09:14:26.584Z,19.17
2018-04-17T09:16:54.027Z,12.70
2018-04-17T09:19:21.519Z,14.50
2018-04-17T09:21:48.982Z,14.93
2018-04-17T09:24:16.433Z,12.30
2018-04-17T09:26:45.895Z,15.80
2018-04-17T09:29:13.386Z,12.07
2018-04-17T09:31:40.783Z,7.97
2018-04-17T09:34:08.235Z,9.30
2018-04-17T09:36:35.663Z,22.37
2018-04-17T09:39:03.129Z,8.45
2018-04-17T09:41:30.540Z,9.60
2018-04-17T09:43:57.997Z,10.17
2018-04-17T09:46:25.436Z,12.17
2018-04-17T09:48:54.584Z,14.40
2018-04-17T09:51:22.043Z,12.40
2018-04-17T09:53:49.500Z,10.60
2018-04-17T09:56:16.950Z,10.53
2018-04-17T09:58:44.452Z,13.73
2018-04-17T10:01:17.639Z,10.02
2018-04-17T10:03:46.590Z,10.77
2018-04-17T10:06:14.056Z,13.43
2018-04-17T10:08:41.518Z,12.43
2018-04-17T10:11:08.979Z,8.90
2018-04-17T10:13:36.415Z,7.63
2018-04-17T10:16:03.862Z,16.13
2018-04-17T10:18:31.297Z,10.60
2018-04-17T10:20:58.755Z,11.63
2018-04-17T10:23:26.193Z,10.68
2018-04-17T10:25:54.426Z,11.00
2018-04-17T10:28:21.855Z,8.73
2018-04-17T10:30:49.292Z,6.37
2018-04-17T10:33:17.909Z,8.80
2018-04-17T10:35:45.359Z,9.20
2018-04-17T10:38:13.588Z,9.13
2018-04-17T10:40:41.032Z,7.97
2018-04-17T10:43:08.474Z,10.80
2018-04-17T10:45:35.906Z,10.05
2018-04-17T10:48:03.358Z,6.23
2018-04-17T10:50:30.801Z,10.67
2018-04-17T10:52:59.006Z,9.50
2018-04-17T10:55:28.003Z,11.30
2018-04-17T10:57:55.447Z,11.67
2018-04-17T11:00:22.891Z,7.83
2018-04-17T11:02:50.348Z,10.30
2018-04-17T11:05:18.411Z,6.97
2018-04-17T11:07:46.616Z,6.18
2018-04-17T11:10:14.094Z,8.80
2018-04-17T11:12:41.600Z,7.03
2018-04-17T11:15:09.006Z,8.67
2018-04-17T11:17:36.446Z,10.43
2018-04-17T11:20:03.878Z,9.60
2018-04-17T11:22:31.325Z,7.07
2018-04-17T11:24:59.543Z,6.57
2018-04-17T11:27:26.982Z,11.13
2018-04-17T11:29:54.419Z,7.05
2018-04-17T11:32:21.862Z,6.30
2018-04-17T11:34:50.099Z,7.70
2018-04-17T11:37:17.526Z,10.53
2018-04-17T11:39:44.968Z,9.67
2018-04-17T11:42:12.407Z,11.33
2018-04-17T11:44:40.721Z,11.20
2018-04-17T11:47:08.149Z,8.00
2018-04-17T11:49:36.353Z,9.07
2018-04-17T11:52:03.798Z,10.18
2018-04-17T11:54:31.218Z,9.73
2018-04-17T11:56:58.680Z,7.17
2018-04-17T11:59:26.140Z,8.85
2018-04-17T12:01:53.572Z,13.37
2018-04-17T12:04:21.007Z,8.93
2018-04-17T12:06:48.458Z,6.20
2018-04-17T12:09:15.880Z,5.77
2018-04-17T12:11:44.090Z,8.60
2018-04-17T12:14:11.543Z,10.60
2018-04-17T12:16:38.988Z,11.00
2018-04-17T12:19:06.427Z,6.83
2018-04-17T12:21:34.662Z,6.20
2018-04-17T12:24:02.103Z,4.30
2018-04-17T12:26:29.563Z,7.12
2018-04-17T12:28:56.994Z,5.80
2018-04-17T12:31:24.441Z,5.67
2018-04-17T12:33:51.880Z,6.80
2018-04-17T12:36:20.090Z,6.47
2018-04-17T12:38:47.943Z,5.00
2018-04-17T12:41:15.399Z,5.10
2018-04-17T12:43:42.864Z,10.33
2018-04-17T12:46:10.303Z,5.13
2018-04-17T12:48:37.739Z,6.80
2018-04-17T12:51:05.948Z,8.20
2018-04-17T12:53:33.399Z,4.70
2018-04-17T12:56:00.891Z,5.80
2018-04-17T12:58:28.294Z,11.77
2018-04-17T13:00:56.502Z,6.90
2018-04-17T13:03:23.948Z,4.30
2018-04-17T13:05:51.388Z,7.13
2018-04-17T13:08:19.579Z,5.30
2018-04-17T13:10:47.046Z,4.33
2018-04-17T13:13:14.497Z,7.23
2018-04-17T13:15:41.970Z,5.70
2018-04-17T13:18:09.394Z,8.00
2018-04-17T13:20:38.008Z,5.40
2018-04-17T13:23:05.452Z,7.40
2018-04-17T13:25:32.880Z,4.73
2018-04-17T13:28:01.170Z,5.20
2018-04-17T13:30:29.388Z,5.23
2018-04-17T13:32:56.820Z,5.30
2018-04-17T13:35:25.046Z,5.03
2018-04-17T13:37:52.487Z,4.23
2018-04-17T13:40:19.935Z,5.07
2018-04-17T13:42:48.123Z,5.40
2018-04-17T13:45:15.585Z,4.47
2018-04-17T13:47:43.053Z,5.37
2018-04-17T13:50:10.484Z,4.87
2018-04-17T13:52:37.946Z,6.87
2018-04-17T13:55:05.366Z,13.20
2018-04-17T13:57:32.814Z,4.40
2018-04-17T14:00:01.006Z,4.87
2018-04-17T14:02:28.496Z,5.20
2018-04-17T14:04:55.931Z,5.33
2018-04-17T14:07:23.440Z,4.33
2018-04-17T14:09:51.771Z,6.03
2018-04-17T14:12:19.126Z,4.47
2018-04-17T14:14:46.564Z,4.83
2018-04-17T14:17:14.005Z,7.83
2018-04-17T14:19:42.195Z,5.00
2018-04-17T14:22:09.645Z,3.83
2018-04-17T14:24:37.078Z,4.10
2018-04-17T14:27:05.289Z,5.00
2018-04-17T14:29:32.732Z,5.63
2018-04-17T14:32:00.179Z,3.70
2018-04-17T14:34:28.394Z,6.07
2018-04-17T14:36:55.824Z,3.87
2018-04-17T14:39:23.263Z,4.43
2018-04-17T14:41:51.473Z,4.10
2018-04-17T14:44:18.904Z,4.30
2018-04-17T14:46:47.232Z,4.43
2018-04-17T14:49:14.675Z,4.60
2018-04-17T14:51:42.115Z,4.67
2018-04-17T14:54:09.550Z,5.17
2018-04-17T14:56:37.788Z,7.77
2018-04-17T14:59:05.174Z,3.73
2018-04-17T15:01:33.380Z,4.15
2018-04-17T15:04:00.814Z,4.73
2018-04-17T15:06:28.284Z,5.03
2018-04-17T15:08:55.711Z,2.83
2018-04-17T15:11:23.922Z,3.13
2018-04-17T15:13:51.356Z,2.97
2018-04-17T15:16:18.807Z,5.20
2018-04-17T15:18:47.000Z,4.20
2018-04-17T15:21:14.473Z,3.70
2018-04-17T15:23:41.928Z,3.60
2018-04-17T15:26:09.360Z,3.77
2018-04-17T15:28:37.746Z,3.77
2018-04-17T15:31:05.182Z,7.20
2018-04-17T15:33:33.399Z,5.57
2018-04-17T15:36:00.860Z,4.27
2018-04-17T15:38:28.301Z,5.77
2018-04-17T15:40:55.751Z,3.90
2018-04-17T15:43:23.199Z,4.47
2018-04-17T15:45:50.630Z,3.77
2018-04-17T15:48:18.083Z,3.63
2018-04-17T15:50:45.555Z,3.93
2018-04-17T15:53:12.970Z,4.27
2018-04-17T15:55:40.404Z,5.33
2018-04-17T15:58:07.852Z,3.20
2018-04-17T16:00:35.293Z,5.70
2018-04-17T16:03:03.507Z,5.13
2018-04-17T16:05:30.945Z,6.90
2018-04-17T16:07:58.402Z,3.77
2018-04-17T16:10:25.827Z,6.93
2018-04-17T16:12:53.272Z,4.83
2018-04-17T16:15:20.700Z,4.87
2018-04-17T16:17:48.141Z,4.10
2018-04-17T16:20:15.583Z,4.33
2018-04-17T16:22:43.031Z,7.40
2018-04-17T16:25:10.470Z,4.97
2018-04-17T16:27:38.682Z,3.40
2018-04-17T16:30:06.117Z,3.75
2018-04-17T16:32:34.348Z,3.50
2018-04-17T16:35:01.800Z,7.10
2018-04-17T16:37:29.308Z,6.17
2018-04-17T16:39:57.502Z,7.20
2018-04-17T16:42:25.065Z,3.97
2018-04-17T16:44:52.505Z,4.27
2018-04-17T16:47:19.967Z,3.90
2018-04-17T16:49:47.409Z,3.30
2018-04-17T16:52:15.626Z,4.55
2018-04-17T16:54:43.074Z,3.70
2018-04-17T16:57:10.509Z,6.10
2018-04-17T16:59:37.981Z,3.67
2018-04-17T17:02:05.419Z,3.73
2018-04-17T17:04:32.858Z,6.10
2018-04-17T17:07:01.067Z,6.72
2018-04-17T17:09:28.515Z,6.40
2018-04-17T17:11:55.941Z,3.40
2018-04-17T17:14:23.403Z,4.90
2018-04-17T17:16:52.338Z,4.10
2018-04-17T17:19:19.795Z,3.60
2018-04-17T17:21:47.230Z,3.65
2018-04-17T17:24:14.672Z,4.23
2018-04-17T17:26:42.869Z,7.23
2018-04-17T17:29:10.310Z,5.40
2018-04-17T17:31:38.519Z,7.53
2018-04-17T17:34:05.967Z,6.87
2018-04-17T17:36:33.393Z,8.57
2018-04-17T17:39:01.636Z,3.70
2018-04-17T17:41:29.066Z,4.70
2018-04-17T17:43:56.515Z,6.13
2018-04-17T17:46:23.942Z,5.13
2018-04-17T17:48:52.181Z,6.37
2018-04-17T17:51:19.618Z,3.80
2018-04-17T17:53:47.084Z,6.90
2018-04-17T17:56:14.511Z,4.03
2018-04-17T17:58:41.947Z,5.20
2018-04-17T18:01:09.379Z,9.77
2018-04-17T18:03:36.840Z,6.43
2018-04-17T18:06:04.278Z,3.30
2018-04-17T18:08:31.762Z,3.80
2018-04-17T18:10:59.966Z,6.43
2018-04-17T18:13:27.425Z,3.30
2018-04-17T18:15:54.874Z,6.50
2018-04-17T18:18:22.317Z,3.90
2018-04-17T18:20:50.524Z,5.70
2018-04-17T18:23:17.976Z,7.60
2018-04-17T18:25:45.565Z,4.77
2018-04-17T18:28:13.030Z,6.83
2018-04-17T18:30:40.480Z,4.53
2018-04-17T18:33:07.928Z,7.70
2018-04-17T18:35:35.367Z,5.43
2018-04-17T18:38:02.827Z,5.63
2018-04-17T18:40:30.254Z,4.10
2018-04-17T18:42:58.469Z,4.50
2018-04-17T18:45:25.906Z,6.07
2018-04-17T18:47:53.340Z,9.00
2018-04-17T18:50:21.554Z,4.90
2018-04-17T18:52:48.998Z,6.70
2018-04-17T18:55:16.430Z,6.10
2018-04-17T18:57:44.636Z,5.60
2018-04-17T19:00:12.088Z,3.50
2018-04-17T19:02:39.527Z,6.03
2018-04-17T19:05:07.216Z,7.73
2018-04-17T19:07:34.675Z,6.30
2018-04-17T19:10:02.109Z,5.13
2018-04-17T19:12:29.532Z,6.67
2018-04-17T19:14:57.000Z,5.23
2018-04-17T19:17:25.204Z,5.90
2018-04-17T19:19:52.659Z,4.50
2018-04-17T19:22:20.100Z,4.50
2018-04-17T19:24:48.301Z,4.30
2018-04-17T19:27:16.204Z,6.80
2018-04-17T19:29:43.656Z,6.47
2018-04-17T19:32:12.699Z,4.20
2018-04-17T19:34:40.149Z,4.10
2018-04-17T19:37:08.359Z,7.27
2018-04-17T19:39:35.782Z,4.80
2018-04-17T19:42:03.231Z,6.13
2018-04-17T19:44:31.436Z,7.73
2018-04-17T19:46:58.895Z,4.30
2018-04-17T19:49:27.233Z,4.37
2018-04-17T19:51:54.678Z,5.37
2018-04-17T19:54:22.107Z,4.50
2018-04-17T19:56:49.569Z,4.00
2018-04-17T19:59:17.025Z,5.70
2018-04-17T20:01:44.460Z,4.30
2018-04-17T20:04:11.882Z,4.27
2018-04-17T20:06:40.083Z,8.73
2018-04-17T20:09:09.177Z,5.87
2018-04-17T20:11:37.294Z,5.80
2018-04-17T20:14:04.728Z,6.63
2018-04-17T20:16:32.170Z,7.87
2018-04-17T20:18:59.617Z,7.13
2018-04-17T20:21:27.062Z,8.63
2018-04-17T20:23:55.268Z,10.02
2018-04-17T20:26:22.709Z,14.23
2018-04-17T20:28:50.153Z,5.40
2018-04-17T20:31:17.612Z,19.97
2018-04-17T20:33:45.108Z,18.60
2018-04-17T20:36:12.558Z,17.67
2018-04-17T20:38:39.998Z,9.57
2018-04-17T20:41:07.483Z,13.67
2018-04-17T20:43:34.923Z,17.83
2018-04-17T20:46:02.375Z,14.32
2018-04-17T20:48:29.820Z,16.17
2018-04-17T20:50:57.291Z,9.20
2018-04-17T20:53:24.730Z,9.53
2018-04-17T20:55:52.185Z,8.73
2018-04-17T20:58:20.388Z,8.67
2018-04-17T21:00:47.825Z,9.30
2018-04-17T21:03:15.284Z,6.80
2018-04-17T21:05:42.743Z,6.20
2018-04-17T21:08:10.184Z,4.82
2018-04-17T21:10:46.937Z,4.73
2018-04-17T21:13:15.144Z,6.17
2018-04-17T21:15:42.596Z,6.93
2018-04-17T21:18:10.817Z,6.73
2018-04-17T21:20:38.262Z,5.85
2018-04-17T21:23:05.707Z,5.53
2018-04-17T21:25:33.171Z,5.80
2018-04-17T21:28:00.611Z,5.93
2018-04-17T21:30:28.069Z,5.25
2018-04-17T21:32:55.494Z,4.40
2018-04-17T21:35:23.007Z,5.00
2018-04-17T21:37:50.445Z,5.37
2018-04-17T21:40:17.887Z,5.60
2018-04-17T21:42:57.831Z,4.10
2018-04-17T21:45:26.033Z,6.23
2018-04-17T21:47:54.243Z,4.63
2018-04-17T21:50:23.075Z,6.37
2018-04-17T21:52:50.530Z,7.97
2018-04-17T21:55:18.732Z,4.90
2018-04-17T21:57:46.184Z,7.30
2018-04-17T22:00:13.629Z,4.70
2018-04-17T22:02:41.067Z,4.93
2018-04-17T22:05:09.388Z,5.90
2018-04-17T22:07:36.855Z,8.87
2018-04-17T22:10:04.284Z,5.15
2018-04-17T22:12:33.203Z,4.82
2018-04-17T22:15:00.637Z,4.40
2018-04-17T22:17:28.089Z,6.00
2018-04-17T22:19:55.527Z,4.60
2018-04-17T22:22:23.742Z,5.10
2018-04-17T22:24:51.187Z,5.28
2018-04-17T22:27:18.640Z,4.13
2018-04-17T22:29:46.072Z,5.03
2018-04-17T22:32:14.301Z,4.57
2018-04-17T22:34:43.186Z,6.77
2018-04-17T22:37:10.655Z,5.03
2018-04-17T22:39:38.099Z,5.63
2018-04-17T22:42:05.555Z,6.10
2018-04-17T22:44:32.983Z,5.97
2018-04-17T22:47:00.445Z,5.32
2018-04-17T22:49:27.891Z,5.53
2018-04-17T22:51:55.335Z,4.37
2018-04-17T22:54:24.363Z,4.87
2018-04-17T22:56:54.120Z,4.60
2018-04-17T22:59:21.559Z,4.43
2018-04-17T23:01:48.995Z,5.63
2018-04-17T23:04:16.434Z,5.17
2018-04-17T23:06:43.897Z,4.60
2018-04-17T23:09:11.343Z,6.17
2018-04-17T23:11:38.798Z,5.13
2018-04-17T23:14:06.232Z,5.43
2018-04-17T23:16:34.439Z,5.40
2018-04-17T23:19:01.888Z,4.67
2018-04-17T23:21:29.386Z,5.50
2018-04-17T23:23:56.777Z,6.47
2018-04-17T23:26:24.996Z,6.03
2018-04-17T23:28:52.435Z,6.20
2018-04-17T23:31:19.867Z,5.20
2018-04-17T23:33:48.092Z,4.97
2018-04-17T23:36:15.539Z,4.67
2018-04-17T23:38:42.988Z,4.97
2018-04-17T23:41:10.431Z,5.03
2018-04-17T23:43:37.876Z,7.10
2018-04-17T23:46:06.077Z,5.27
2018-04-17T23:48:33.510Z,4.43
2018-04-17T23:51:09.707Z,6.83
2018-04-17T23:53:37.154Z,6.00
2018-04-17T23:56:04.597Z,5.10
2018-04-17T23:58:32.042Z,4.83
